St. Bartholomew — WDI6417 — position and weather

sailwx.info

Track history (hours):
 
Tides and Currents Weather Stations Pressure Air Temp Water Temp Dewpoint Dewpoint Depression Visibility Wind Speed Wind Dir Waves Ship Positions

St. Bartholomew

Owner: Marquette Transportation Company Gulf-Inland, LLC, Jefferson, LA. More information available from US FCC via Universal Licensing System and Coast Guard Vessel Documentation Center.

Last reported at 2017-Sep-21 05:00 UTC. Time now 2017-Sep-21 05:28 UTC.
Position N 31°59' W 091°11'.

Length 223 m; draft 2.7 m.

Type: Towing. MMSI: 367718490.

Date/timePositionNaut miles runAvg speedWind from/ knotsBaromVisibWave heightAir tempDewpointWater temp
2017-Sep-21 05:00N 31°59' W 091°11'2 3.5
2017-Sep-21 04:30N 31°57' W 091°11'4 1.8
2017-Sep-21 02:13N 31°53' W 091°13'1 3.0
2017-Sep-21 02:00N 31°53' W 091°14'  
2017-Sep-14 20:18N 31°59' W 091°06'4 8.1
2017-Sep-14 19:52N 32°02' W 091°04'4 7.3
2017-Sep-14 19:17N 32°06' W 091°06'2 6.2
2017-Sep-14 19:00N 32°08' W 091°06'4 7.8
2017-Sep-14 18:30N 32°07' W 091°02'4 7.9
2017-Sep-14 18:00N 32°11' W 090°60'4 8.4
2017-Sep-14 17:30N 32°15' W 090°59'4 7.9
2017-Sep-14 17:00N 32°18' W 090°55'1 1.1
2017-Sep-14 16:30N 32°18' W 090°55'2 4.2
2017-Sep-14 16:00N 32°20' W 090°54'3 6.7
2017-Sep-14 15:30N 32°21' W 090°58'3 5.2
2017-Sep-14 15:00N 32°23' W 090°60'3 6.8
2017-Sep-14 14:30N 32°26' W 091°02'4 7.8
2017-Sep-14 14:00N 32°28' W 091°06'4 7.2
2017-Sep-14 13:26N 32°32' W 091°06'4 7.5
2017-Sep-14 12:55N 32°35' W 091°08'  
Track history (hours):
 
Tides and Currents Weather Stations Pressure Air Temp Water Temp Dewpoint Dewpoint Depression Visibility Wind Speed Wind Dir Waves Ship Positions

St. Bartholomew

Owner: Marquette Transportation Company Gulf-Inland, LLC, Jefferson, LA. More information available from US FCC via Universal Licensing System and Coast Guard Vessel Documentation Center.

Last reported at 2017-Sep-21 05:00 UTC. Time now 2017-Sep-21 05:28 UTC.
Position N 31°59' W 091°11'.

Length 223 m; draft 2.7 m.

Type: Towing. MMSI: 367718490.

Date/timePositionNaut miles runAvg speedWind from/ knotsBaromVisibWave heightAir tempDewpointWater temp
2017-Sep-21 05:00N 31°59' W 091°11'2 3.5
2017-Sep-21 04:30N 31°57' W 091°11'4 1.8
2017-Sep-21 02:13N 31°53' W 091°13'1 3.0
2017-Sep-21 02:00N 31°53' W 091°14'  
2017-Sep-14 20:18N 31°59' W 091°06'4 8.1
2017-Sep-14 19:52N 32°02' W 091°04'4 7.3
2017-Sep-14 19:17N 32°06' W 091°06'2 6.2
2017-Sep-14 19:00N 32°08' W 091°06'4 7.8
2017-Sep-14 18:30N 32°07' W 091°02'4 7.9
2017-Sep-14 18:00N 32°11' W 090°60'4 8.4
2017-Sep-14 17:30N 32°15' W 090°59'4 7.9
2017-Sep-14 17:00N 32°18' W 090°55'1 1.1
2017-Sep-14 16:30N 32°18' W 090°55'2 4.2
2017-Sep-14 16:00N 32°20' W 090°54'3 6.7
2017-Sep-14 15:30N 32°21' W 090°58'3 5.2
2017-Sep-14 15:00N 32°23' W 090°60'3 6.8
2017-Sep-14 14:30N 32°26' W 091°02'4 7.8
2017-Sep-14 14:00N 32°28' W 091°06'4 7.2
2017-Sep-14 13:26N 32°32' W 091°06'4 7.5
2017-Sep-14 12:55N 32°35' W 091°08'  

Dump ship's entire track history